Time;durP1;ratioP1;P1;durP2;ratioP2;P2;SDS_P1;SDS_P2;PMS_P1;PMS_P2;Temp;Humidity;BMP_temperature;BMP_pressure;BME280_temperature;BME280_humidity;BME280_pressure;Samples;Min_cycle;Max_cycle;Signal;HPM_P1;HPM_P2
2023/05/03 00:00:29;;;;;;;5.28;2.33;;;;;;;;;;6281841;22;20051;-77
2023/05/03 00:02:56;;;;;;;3.95;2.22;;;;;;;;;;6282345;22;20350;-78
2023/05/03 00:05:21;;;;;;;5.78;2.33;;;;;;;;;;6282499;22;20052;-77
2023/05/03 00:07:47;;;;;;;4.93;2.30;;;;;;;;;;6281072;22;20000;-78
2023/05/03 00:10:14;;;;;;;4.68;2.17;;;;;;;;;;6281325;22;20059;-78
2023/05/03 00:12:41;;;;;;;6.47;2.53;;;;;;;;;;6282583;22;20000;-78
2023/05/03 00:15:08;;;;;;;6.22;2.17;;;;;;;;;;6282429;22;19995;-78
2023/05/03 00:17:33;;;;;;;5.03;2.72;;;;;;;;;;6281698;22;20299;-78
2023/05/03 00:19:59;;;;;;;4.38;2.10;;;;;;;;;;6254672;22;20107;-78
2023/05/03 00:22:25;;;;;;;6.63;2.50;;;;;;;;;;6281697;22;20022;-78
2023/05/03 00:24:51;;;;;;;4.10;2.28;;;;;;;;;;6282243;22;20117;-78
2023/05/03 00:27:17;;;;;;;5.07;2.60;;;;;;;;;;6281613;22;19996;-78
2023/05/03 00:29:43;;;;;;;5.80;2.30;;;;;;;;;;6281359;22;20003;-78
2023/05/03 00:32:09;;;;;;;4.18;2.40;;;;;;;;;;6280703;22;20073;-77
2023/05/03 00:34:35;;;;;;;4.10;2.50;;;;;;;;;;6281225;22;20043;-78
2023/05/03 00:37:01;;;;;;;5.18;2.35;;;;;;;;;;6280917;22;20065;-78
2023/05/03 00:39:30;;;;;;;4.65;2.30;;;;;;;;;;6280915;22;20019;-77
2023/05/03 00:41:56;;;;;;;5.22;2.28;;;;;;;;;;6281036;22;20004;-78
2023/05/03 00:44:22;;;;;;;5.05;2.15;;;;;;;;;;6281877;22;19999;-78
2023/05/03 00:46:47;;;;;;;4.65;2.15;;;;;;;;;;6281297;22;20242;-78
2023/05/03 00:49:13;;;;;;;4.82;2.42;;;;;;;;;;6282217;22;20011;-77
2023/05/03 00:51:40;;;;;;;5.32;2.25;;;;;;;;;;6281736;22;19995;-77
2023/05/03 00:54:06;;;;;;;3.30;1.95;;;;;;;;;;6281484;22;19991;-78
2023/05/03 00:56:32;;;;;;;3.88;2.30;;;;;;;;;;6281558;22;20007;-78
2023/05/03 00:58:58;;;;;;;5.82;2.50;;;;;;;;;;6280686;22;19995;-78
2023/05/03 01:01:24;;;;;;;4.25;2.50;;;;;;;;;;6282378;22;19992;-78
2023/05/03 01:03:50;;;;;;;5.28;2.50;;;;;;;;;;6281680;22;20000;-78
2023/05/03 01:06:34;;;;;;;5.15;2.20;;;;;;;;;;6281525;22;20007;-77
2023/05/03 01:09:21;;;;;;;4.35;2.00;;;;;;;;;;6280720;22;19996;-78
2023/05/03 01:11:59;;;;;;;5.50;2.25;;;;;;;;;;6281596;22;20059;-77
2023/05/03 01:14:43;;;;;;;3.80;1.92;;;;;;;;;;6281070;22;20492;-78
2023/05/03 01:17:13;;;;;;;4.75;2.05;;;;;;;;;;6281616;22;20048;-77
2023/05/03 01:19:44;;;;;;;4.20;1.95;;;;;;;;;;6280976;22;19999;-77
2023/05/03 01:22:15;;;;;;;7.57;2.20;;;;;;;;;;6253601;22;20421;-78
2023/05/03 01:24:46;;;;;;;4.20;1.90;;;;;;;;;;6281060;22;20034;-77
2023/05/03 01:27:12;;;;;;;3.30;1.90;;;;;;;;;;6281505;22;20309;-77
2023/05/03 01:29:37;;;;;;;4.90;1.90;;;;;;;;;;6280996;22;20029;-77
2023/05/03 01:32:08;;;;;;;4.97;1.80;;;;;;;;;;6281531;22;20226;-77
2023/05/03 01:34:49;;;;;;;4.15;1.92;;;;;;;;;;6281090;22;20003;-78
2023/05/03 01:37:16;;;;;;;3.72;1.63;;;;;;;;;;6280442;22;20065;-77
2023/05/03 01:39:58;;;;;;;3.00;1.88;;;;;;;;;;6280902;22;20003;-78
2023/05/03 01:42:25;;;;;;;5.68;1.70;;;;;;;;;;6280778;22;20004;-77
2023/05/03 01:44:53;;;;;;;3.92;1.92;;;;;;;;;;6253427;22;20049;-77
2023/05/03 01:47:18;;;;;;;3.50;1.83;;;;;;;;;;6281132;22;20163;-77
2023/05/03 01:49:44;;;;;;;3.17;1.80;;;;;;;;;;6280539;22;19999;-77
2023/05/03 01:52:09;;;;;;;4.18;1.98;;;;;;;;;;6280192;22;20010;-78
2023/05/03 01:54:34;;;;;;;3.63;1.98;;;;;;;;;;6253754;22;19999;-77
2023/05/03 01:57:00;;;;;;;3.38;1.98;;;;;;;;;;6281340;22;20004;-77
2023/05/03 01:59:26;;;;;;;3.97;1.92;;;;;;;;;;6280856;22;20047;-77
2023/05/03 02:01:51;;;;;;;4.50;2.00;;;;;;;;;;6282130;22;19999;-77
2023/05/03 02:04:16;;;;;;;3.20;1.90;;;;;;;;;;6281231;22;19995;-78
2023/05/03 02:06:42;;;;;;;3.20;1.80;;;;;;;;;;6281340;22;20058;-77
2023/05/03 02:09:07;;;;;;;3.75;1.80;;;;;;;;;;6280659;22;20191;-77
2023/05/03 02:11:33;;;;;;;4.13;1.70;;;;;;;;;;6280834;22;20008;-76
2023/05/03 02:13:58;;;;;;;3.35;1.80;;;;;;;;;;6280530;22;20006;-77
2023/05/03 02:16:25;;;;;;;2.80;1.65;;;;;;;;;;6280779;22;20013;-77
2023/05/03 02:18:50;;;;;;;3.50;1.95;;;;;;;;;;6280199;22;19996;-77
2023/05/03 02:21:16;;;;;;;2.97;1.70;;;;;;;;;;6280352;22;20030;-77
2023/05/03 02:23:41;;;;;;;3.55;1.63;;;;;;;;;;6280574;22;20002;-77
2023/05/03 02:26:07;;;;;;;3.45;1.60;;;;;;;;;;6281398;22;20050;-76
2023/05/03 02:28:33;;;;;;;3.10;1.77;;;;;;;;;;6280803;22;20090;-77
2023/05/03 02:30:58;;;;;;;3.85;1.90;;;;;;;;;;6281018;22;19992;-77
2023/05/03 02:33:24;;;;;;;2.50;1.70;;;;;;;;;;6281049;22;20248;-77
2023/05/03 02:35:49;;;;;;;3.53;1.80;;;;;;;;;;6280223;22;19995;-77
2023/05/03 02:38:15;;;;;;;2.80;1.90;;;;;;;;;;6281019;22;20046;-77
2023/05/03 02:40:40;;;;;;;4.20;1.77;;;;;;;;;;6280510;22;20030;-77
2023/05/03 02:43:06;;;;;;;3.53;1.98;;;;;;;;;;6280420;22;20200;-77
2023/05/03 02:45:31;;;;;;;3.13;1.73;;;;;;;;;;6280475;22;20059;-78
2023/05/03 02:47:58;;;;;;;4.05;1.95;;;;;;;;;;6253569;22;19995;-77
2023/05/03 02:50:23;;;;;;;4.60;1.80;;;;;;;;;;6280724;22;19999;-78
2023/05/03 02:52:49;;;;;;;5.10;1.95;;;;;;;;;;6280562;22;20000;-77
2023/05/03 02:55:15;;;;;;;3.38;1.90;;;;;;;;;;6280854;22;20003;-78
2023/05/03 02:57:41;;;;;;;3.22;1.90;;;;;;;;;;6280966;22;20035;-77
2023/05/03 03:00:09;;;;;;;4.80;1.80;;;;;;;;;;6281001;22;20319;-78
2023/05/03 03:02:34;;;;;;;2.38;1.80;;;;;;;;;;6281838;22;20384;-78
2023/05/03 03:05:00;;;;;;;3.67;1.92;;;;;;;;;;6283098;22;20382;-77
2023/05/03 03:07:25;;;;;;;3.75;1.75;;;;;;;;;;6282177;22;20042;-77
2023/05/03 03:09:51;;;;;;;3.95;2.00;;;;;;;;;;6282956;22;20006;-77
2023/05/03 03:12:16;;;;;;;4.32;1.98;;;;;;;;;;6281971;22;20075;-77
2023/05/03 03:14:44;;;;;;;3.08;1.95;;;;;;;;;;6282543;22;19999;-77
2023/05/03 03:17:10;;;;;;;3.83;2.10;;;;;;;;;;6282108;22;20026;-77
2023/05/03 03:19:36;;;;;;;3.85;2.20;;;;;;;;;;6282400;22;20002;-76
2023/05/03 03:22:02;;;;;;;4.45;2.10;;;;;;;;;;6282000;22;19991;-77
2023/05/03 03:24:27;;;;;;;5.25;2.10;;;;;;;;;;6282474;22;20007;-78
2023/05/03 03:26:52;;;;;;;3.58;2.05;;;;;;;;;;6282590;22;20049;-77
2023/05/03 03:29:18;;;;;;;3.58;2.15;;;;;;;;;;6282505;22;20003;-77
2023/05/03 03:31:43;;;;;;;3.20;2.03;;;;;;;;;;6282779;22;20058;-77
2023/05/03 03:34:11;;;;;;;5.28;2.15;;;;;;;;;;6282720;22;20003;-77
2023/05/03 03:36:38;;;;;;;3.85;2.15;;;;;;;;;;6281417;22;20035;-78
2023/05/03 03:39:04;;;;;;;4.72;2.13;;;;;;;;;;6281567;22;20079;-77
2023/05/03 03:41:30;;;;;;;3.17;1.90;;;;;;;;;;6281949;22;19992;-78
2023/05/03 03:43:56;;;;;;;4.35;2.10;;;;;;;;;;6254088;22;20019;-77
2023/05/03 03:46:21;;;;;;;3.83;1.80;;;;;;;;;;6281782;22;20019;-77
2023/05/03 03:48:46;;;;;;;2.83;1.95;;;;;;;;;;6281563;22;20007;-77
2023/05/03 03:51:12;;;;;;;4.22;2.13;;;;;;;;;;6281913;22;20003;-78
2023/05/03 03:53:37;;;;;;;4.03;2.17;;;;;;;;;;6254625;22;19999;-78
2023/05/03 03:56:03;;;;;;;3.70;1.92;;;;;;;;;;6282047;22;20291;-78
2023/05/03 03:58:30;;;;;;;4.55;2.08;;;;;;;;;;6281030;22;20242;-78
2023/05/03 04:00:55;;;;;;;4.38;2.25;;;;;;;;;;6282307;22;20251;-77
2023/05/03 04:03:21;;;;;;;4.25;2.22;;;;;;;;;;6255930;22;20006;-77
2023/05/03 04:05:46;;;;;;;3.60;2.20;;;;;;;;;;6282121;22;20019;-77
2023/05/03 04:08:12;;;;;;;5.32;2.40;;;;;;;;;;6283019;22;20012;-78
2023/05/03 04:10:37;;;;;;;4.70;2.30;;;;;;;;;;6256129;22;20004;-77
2023/05/03 04:13:02;;;;;;;6.43;2.30;;;;;;;;;;6282779;22;20335;-77
2023/05/03 04:15:28;;;;;;;5.53;2.08;;;;;;;;;;6281981;22;19996;-78
2023/05/03 04:17:53;;;;;;;4.30;2.20;;;;;;;;;;6254735;22;20000;-78
2023/05/03 04:20:20;;;;;;;6.95;2.15;;;;;;;;;;6282185;22;20023;-77
2023/05/03 04:22:45;;;;;;;5.53;2.05;;;;;;;;;;6253600;22;20004;-77
2023/05/03 04:25:13;;;;;;;4.57;2.40;;;;;;;;;;6281821;22;19992;-77
2023/05/03 04:27:39;;;;;;;6.78;2.30;;;;;;;;;;6281858;22;20091;-78
2023/05/03 04:30:06;;;;;;;3.92;2.13;;;;;;;;;;6281773;22;20211;-77
2023/05/03 04:32:35;;;;;;;5.38;2.00;;;;;;;;;;6280845;22;19996;-77
2023/05/03 04:35:03;;;;;;;3.93;2.00;;;;;;;;;;6282524;22;20051;-77
2023/05/03 04:37:29;;;;;;;5.30;2.10;;;;;;;;;;6281295;22;20003;-77
2023/05/03 04:39:55;;;;;;;3.47;2.15;;;;;;;;;;6280924;22;20049;-77
2023/05/03 04:42:20;;;;;;;5.72;2.17;;;;;;;;;;6254025;22;20003;-77
2023/05/03 04:44:45;;;;;;;4.53;2.00;;;;;;;;;;6281103;22;19987;-77
2023/05/03 04:47:11;;;;;;;5.45;2.33;;;;;;;;;;6282392;22;20042;-76
2023/05/03 04:49:38;;;;;;;4.10;2.13;;;;;;;;;;6254367;22;20004;-77
2023/05/03 04:52:03;;;;;;;4.32;2.10;;;;;;;;;;6253772;22;20031;-77
2023/05/03 04:54:28;;;;;;;4.95;2.42;;;;;;;;;;6281558;22;20003;-78
2023/05/03 04:56:57;;;;;;;3.85;2.28;;;;;;;;;;6281956;22;20080;-77
2023/05/03 04:59:22;;;;;;;4.07;2.30;;;;;;;;;;6281904;22;19996;-76
2023/05/03 05:01:48;;;;;;;3.47;2.08;;;;;;;;;;6282699;22;20002;-77
2023/05/03 05:04:13;;;;;;;5.32;2.17;;;;;;;;;;6282240;22;20019;-76
2023/05/03 05:06:40;;;;;;;4.50;2.20;;;;;;;;;;6255196;22;20004;-77
2023/05/03 05:09:06;;;;;;;5.82;1.98;;;;;;;;;;6281144;22;20046;-76
2023/05/03 05:11:32;;;;;;;3.22;2.17;;;;;;;;;;6280969;22;20542;-77
2023/05/03 05:13:57;;;;;;;3.92;2.10;;;;;;;;;;6254584;22;20008;-77
2023/05/03 05:16:23;;;;;;;5.13;2.15;;;;;;;;;;6280902;22;20003;-77
2023/05/03 05:18:48;;;;;;;4.70;2.25;;;;;;;;;;6281448;22;20006;-77
2023/05/03 05:21:14;;;;;;;7.15;2.50;;;;;;;;;;6281320;22;20055;-77
2023/05/03 05:23:39;;;;;;;6.63;2.40;;;;;;;;;;6280852;22;19995;-77
2023/05/03 05:26:05;;;;;;;3.03;2.20;;;;;;;;;;6280876;22;20092;-77
2023/05/03 05:28:31;;;;;;;3.85;2.28;;;;;;;;;;6281529;22;20000;-77
2023/05/03 05:30:56;;;;;;;5.00;2.28;;;;;;;;;;6280796;22;20004;-77
2023/05/03 05:33:22;;;;;;;6.22;2.10;;;;;;;;;;6281475;22;20026;-78
2023/05/03 05:35:47;;;;;;;3.35;2.03;;;;;;;;;;6281510;22;20049;-77
2023/05/03 05:38:16;;;;;;;3.65;2.30;;;;;;;;;;6282345;22;20106;-77
2023/05/03 05:40:42;;;;;;;5.03;2.15;;;;;;;;;;6282126;22;20004;-88
2023/05/03 05:43:07;;;;;;;3.95;2.13;;;;;;;;;;6282326;22;20216;-79
2023/05/03 05:45:33;;;;;;;4.32;2.10;;;;;;;;;;6281665;22;20090;-78
2023/05/03 05:47:58;;;;;;;4.65;2.25;;;;;;;;;;6281364;22;20006;-77
2023/05/03 05:50:24;;;;;;;6.35;2.30;;;;;;;;;;6281003;22;20023;-77
2023/05/03 05:52:51;;;;;;;4.25;2.38;;;;;;;;;;6280091;22;20058;-76
2023/05/03 05:55:16;;;;;;;3.85;2.20;;;;;;;;;;6281479;22;19996;-77
2023/05/03 05:57:42;;;;;;;4.57;2.20;;;;;;;;;;6281032;22;20364;-88
2023/05/03 06:00:13;;;;;;;3.75;2.22;;;;;;;;;;6281223;22;20019;-78
2023/05/03 06:02:41;;;;;;;4.70;2.10;;;;;;;;;;6282050;22;20287;-76
2023/05/03 06:05:07;;;;;;;4.88;2.40;;;;;;;;;;6282153;22;20288;-78
2023/05/03 06:07:33;;;;;;;4.57;2.20;;;;;;;;;;6281648;22;20011;-77
2023/05/03 06:09:58;;;;;;;5.82;2.40;;;;;;;;;;6282367;22;20006;-77
2023/05/03 06:12:24;;;;;;;6.53;2.50;;;;;;;;;;6281933;22;20333;-78
2023/05/03 06:14:49;;;;;;;6.05;2.53;;;;;;;;;;6248143;22;20007;-77
2023/05/03 06:17:15;;;;;;;4.57;2.38;;;;;;;;;;6269796;22;20104;-76
2023/05/03 06:19:41;;;;;;;7.00;2.45;;;;;;;;;;6270567;22;20000;-77
2023/05/03 06:22:06;;;;;;;4.78;2.60;;;;;;;;;;6269568;22;20004;-76
2023/05/03 06:24:31;;;;;;;5.22;2.47;;;;;;;;;;6242923;22;20039;-76
2023/05/03 06:26:58;;;;;;;7.10;2.45;;;;;;;;;;6270109;22;20056;-76
2023/05/03 06:29:24;;;;;;;4.03;2.40;;;;;;;;;;6270500;22;20083;-77
2023/05/03 06:31:50;;;;;;;7.50;2.72;;;;;;;;;;6269998;22;20438;-78
2023/05/03 06:34:19;;;;;;;7.22;2.60;;;;;;;;;;6247881;22;20240;-76
2023/05/03 06:36:44;;;;;;;8.40;2.88;;;;;;;;;;6281548;22;20000;-79
2023/05/03 06:39:10;;;;;;;4.47;2.40;;;;;;;;;;6284243;22;20415;-77
2023/05/03 06:41:35;;;;;;;7.60;2.90;;;;;;;;;;6282671;22;20059;-77
2023/05/03 06:44:02;;;;;;;5.47;2.65;;;;;;;;;;6281852;22;20055;-80
2023/05/03 06:46:28;;;;;;;6.20;2.35;;;;;;;;;;6273691;22;19996;-76
2023/05/03 06:48:56;;;;;;;4.78;2.40;;;;;;;;;;6272588;22;20096;-79
2023/05/03 06:51:27;;;;;;;4.75;2.40;;;;;;;;;;6245750;22;20003;-77
2023/05/03 06:53:53;;;;;;;;;;;;;;;;;;6272256;22;20054;-78
2023/05/03 06:56:19;;;;;;;2.97;2.10;;;;;;;;;;6278025;22;19907;-77
2023/05/03 06:58:44;;;;;;;5.50;2.47;;;;;;;;;;6248742;22;20004;-76
2023/05/03 07:01:10;;;;;;;5.78;2.30;;;;;;;;;;6272010;22;20007;-76
2023/05/03 07:03:36;;;;;;;3.83;2.03;;;;;;;;;;6272628;22;20011;-76
2023/05/03 07:06:02;;;;;;;3.40;1.92;;;;;;;;;;6274542;22;20020;-76
2023/05/03 07:08:28;;;;;;;6.68;2.10;;;;;;;;;;6273700;22;20007;-78
2023/05/03 07:10:53;;;;;;;3.33;1.85;;;;;;;;;;6272537;22;20003;-76
2023/05/03 07:13:18;;;;;;;6.03;2.10;;;;;;;;;;6272119;22;20049;-79
2023/05/03 07:15:44;;;;;;;3.35;1.90;;;;;;;;;;6271041;22;20004;-79
2023/05/03 07:18:10;;;;;;;3.63;1.90;;;;;;;;;;6241188;22;20519;-79
2023/05/03 07:20:35;;;;;;;3.30;1.55;;;;;;;;;;6269531;22;20004;-77
2023/05/03 07:23:01;;;;;;;4.68;1.77;;;;;;;;;;6241572;22;20444;-77
2023/05/03 07:25:26;;;;;;;3.05;1.50;;;;;;;;;;6269186;22;20654;-77
2023/05/03 07:27:52;;;;;;;2.83;1.60;;;;;;;;;;6268873;22;19996;-76
2023/05/03 07:30:17;;;;;;;5.05;1.67;;;;;;;;;;6242372;22;20047;-78
2023/05/03 07:32:43;;;;;;;3.72;1.67;;;;;;;;;;6270886;22;19999;-76
2023/05/03 07:35:09;;;;;;;2.63;1.50;;;;;;;;;;6271390;22;20000;-76
2023/05/03 07:37:36;;;;;;;4.57;1.60;;;;;;;;;;6242064;22;20042;-77
2023/05/03 07:40:01;;;;;;;5.85;1.80;;;;;;;;;;6272053;22;20730;-76
2023/05/03 07:42:26;;;;;;;4.43;1.30;;;;;;;;;;6271825;22;20003;-76
2023/05/03 07:44:53;;;;;;;3.70;1.40;;;;;;;;;;6271930;22;20077;-76
2023/05/03 07:47:18;;;;;;;4.70;1.58;;;;;;;;;;6244538;22;20120;-77
2023/05/03 07:49:44;;;;;;;3.20;1.65;;;;;;;;;;6271234;22;20438;-76
2023/05/03 07:52:10;;;;;;;2.75;1.60;;;;;;;;;;6243844;22;20018;-77
2023/05/03 07:54:35;;;;;;;3.58;1.55;;;;;;;;;;6271713;22;20007;-77
2023/05/03 07:57:02;;;;;;;3.80;1.92;;;;;;;;;;6271575;22;19999;-77
2023/05/03 07:59:27;;;;;;;3.38;1.63;;;;;;;;;;6271751;22;20000;-76
2023/05/03 08:01:53;;;;;;;3.53;1.60;;;;;;;;;;6271570;22;20010;-77
2023/05/03 08:04:18;;;;;;;3.25;1.60;;;;;;;;;;6271911;22;19995;-78
2023/05/03 08:06:44;;;;;;;5.47;1.60;;;;;;;;;;6271747;22;20006;-78
2023/05/03 08:09:10;;;;;;;2.83;1.40;;;;;;;;;;6271262;22;20011;-78
2023/05/03 08:11:35;;;;;;;2.42;1.55;;;;;;;;;;6272262;22;20003;-77
2023/05/03 08:14:01;;;;;;;2.53;1.30;;;;;;;;;;6271352;22;20062;-77
2023/05/03 08:16:27;;;;;;;3.80;1.80;;;;;;;;;;6271690;22;20004;-76
2023/05/03 08:18:52;;;;;;;3.97;1.58;;;;;;;;;;6271770;22;19996;-77
2023/05/03 08:21:18;;;;;;;2.28;1.40;;;;;;;;;;6271146;22;20370;-77
2023/05/03 08:23:43;;;;;;;2.35;1.40;;;;;;;;;;6271159;22;20011;-77
2023/05/03 08:26:09;;;;;;;1.65;1.25;;;;;;;;;;6271376;22;20000;-76
2023/05/03 08:28:35;;;;;;;2.28;1.48;;;;;;;;;;6271122;22;20039;-77
2023/05/03 08:31:03;;;;;;;2.70;1.50;;;;;;;;;;6271841;22;20000;-76
2023/05/03 08:33:29;;;;;;;4.88;1.42;;;;;;;;;;6271162;22;20074;-77
2023/05/03 08:35:56;;;;;;;3.33;1.50;;;;;;;;;;6271037;22;20030;-77
2023/05/03 08:38:25;;;;;;;3.97;1.40;;;;;;;;;;6270844;22;20364;-78
2023/05/03 08:40:53;;;;;;;2.72;1.48;;;;;;;;;;6271478;22;20053;-77
2023/05/03 08:43:19;;;;;;;2.97;1.45;;;;;;;;;;6243847;22;20000;-76
2023/05/03 08:45:45;;;;;;;2.60;1.60;;;;;;;;;;6271132;22;20452;-77
2023/05/03 08:48:12;;;;;;;6.60;1.65;;;;;;;;;;6271205;22;19996;-77
2023/05/03 08:50:41;;;;;;;2.92;1.58;;;;;;;;;;6271367;22;20007;-77
2023/05/03 08:53:08;;;;;;;3.20;1.67;;;;;;;;;;6270831;22;20394;-77
2023/05/03 08:55:33;;;;;;;2.58;1.50;;;;;;;;;;6271269;22;20003;-77
2023/05/03 08:57:59;;;;;;;2.38;1.45;;;;;;;;;;6270936;22;20088;-78
2023/05/03 09:00:28;;;;;;;1.92;1.30;;;;;;;;;;6271140;22;20069;-76
2023/05/03 09:02:55;;;;;;;3.05;1.52;;;;;;;;;;6271037;22;20456;-77
2023/05/03 09:05:20;;;;;;;2.53;1.45;;;;;;;;;;6270989;22;20003;-77
2023/05/03 09:08:06;;;;;;;2.38;1.50;;;;;;;;;;6270443;22;20336;-76
2023/05/03 09:10:33;;;;;;;2.53;1.45;;;;;;;;;;6271755;22;20008;-77
2023/05/03 09:13:00;;;;;;;2.30;1.40;;;;;;;;;;6271364;22;20027;-77
2023/05/03 09:15:29;;;;;;;2.40;1.60;;;;;;;;;;6270939;22;20007;-76
2023/05/03 09:18:15;;;;;;;1.98;1.40;;;;;;;;;;6270719;22;20057;-77
2023/05/03 09:20:41;;;;;;;2.15;1.40;;;;;;;;;;6243938;22;20012;-77
2023/05/03 09:23:08;;;;;;;3.83;1.38;;;;;;;;;;6270996;22;20000;-77
2023/05/03 09:25:44;;;;;;;1.58;1.20;;;;;;;;;;6270913;22;19996;-76
2023/05/03 09:28:14;;;;;;;2.97;1.30;;;;;;;;;;6270791;22;20007;-77
2023/05/03 09:30:40;;;;;;;2.00;1.30;;;;;;;;;;6244021;22;20004;-76
2023/05/03 09:33:07;;;;;;;2.75;1.40;;;;;;;;;;6270879;22;20033;-76
2023/05/03 09:35:33;;;;;;;1.92;1.30;;;;;;;;;;6270660;22;20057;-76
2023/05/03 09:37:59;;;;;;;1.80;1.30;;;;;;;;;;6270042;22;20011;-77
2023/05/03 09:40:25;;;;;;;1.85;1.20;;;;;;;;;;6270810;22;20007;-77
2023/05/03 09:43:08;;;;;;;3.72;1.50;;;;;;;;;;6270738;22;20073;-77
2023/05/03 09:45:37;;;;;;;2.28;1.40;;;;;;;;;;6270809;22;19999;-77
2023/05/03 09:48:04;;;;;;;2.83;1.50;;;;;;;;;;6243354;22;19999;-77
2023/05/03 09:50:35;;;;;;;2.05;1.27;;;;;;;;;;6270723;22;20516;-76
2023/05/03 09:53:02;;;;;;;2.75;1.42;;;;;;;;;;6270256;22;20301;-78
2023/05/03 09:55:34;;;;;;;2.17;1.25;;;;;;;;;;6270344;22;20011;-76
2023/05/03 09:58:00;;;;;;;2.22;1.33;;;;;;;;;;6243391;22;20010;-78
2023/05/03 10:00:27;;;;;;;2.42;1.30;;;;;;;;;;6270659;22;20011;-77
2023/05/03 10:02:56;;;;;;;3.70;1.63;;;;;;;;;;6244186;22;20443;-77
2023/05/03 10:05:26;;;;;;;2.30;1.20;;;;;;;;;;6243102;22;20051;-76
2023/05/03 10:07:53;;;;;;;1.80;1.20;;;;;;;;;;6270425;22;20072;-78
2023/05/03 10:10:20;;;;;;;5.18;1.52;;;;;;;;;;6270221;22;20007;-76
2023/05/03 10:12:46;;;;;;;3.17;1.45;;;;;;;;;;6270387;22;20004;-77
2023/05/03 10:15:15;;;;;;;2.65;1.20;;;;;;;;;;6270206;22;20004;-78
2023/05/03 10:17:42;;;;;;;2.83;1.48;;;;;;;;;;6270642;22;20026;-77
2023/05/03 10:20:31;;;;;;;1.83;1.10;;;;;;;;;;6270727;22;20509;-78
2023/05/03 10:23:03;;;;;;;2.10;1.30;;;;;;;;;;6271092;22;20010;-78
2023/05/03 10:25:29;;;;;;;3.58;1.50;;;;;;;;;;6243140;22;20058;-77
2023/05/03 10:28:08;;;;;;;2.63;1.35;;;;;;;;;;6270609;22;20004;-77
2023/05/03 10:30:38;;;;;;;6.10;1.83;;;;;;;;;;6270244;22;20007;-77
2023/05/03 10:33:12;;;;;;;2.22;1.27;;;;;;;;;;6270379;22;20027;-77
2023/05/03 10:35:42;;;;;;;2.40;1.30;;;;;;;;;;6270212;22;20027;-77
2023/05/03 10:38:14;;;;;;;2.70;1.42;;;;;;;;;;6270265;22;20022;-77
2023/05/03 10:40:42;;;;;;;1.67;1.23;;;;;;;;;;6270316;22;20012;-77
2023/05/03 10:43:30;;;;;;;2.33;1.30;;;;;;;;;;6270499;22;20095;-77
2023/05/03 10:46:07;;;;;;;1.67;1.10;;;;;;;;;;6269989;22;20356;-77
2023/05/03 10:48:34;;;;;;;3.67;1.30;;;;;;;;;;6270414;22;20133;-78
2023/05/03 10:51:35;;;;;;;4.10;1.55;;;;;;;;;;6269980;22;20035;-77
2023/05/03 10:54:01;;;;;;;5.00;1.50;;;;;;;;;;6270349;22;19999;-79
2023/05/03 10:56:26;;;;;;;2.65;1.30;;;;;;;;;;6243118;22;20019;-79
2023/05/03 10:58:55;;;;;;;4.18;1.30;;;;;;;;;;6270470;22;20010;-78
2023/05/03 11:01:23;;;;;;;2.78;1.40;;;;;;;;;;6270259;22;20010;-78
2023/05/03 11:04:14;;;;;;;3.28;1.70;;;;;;;;;;6270315;22;20046;-77
2023/05/03 11:06:40;;;;;;;2.92;1.50;;;;;;;;;;6269463;22;20039;-77
2023/05/03 11:09:07;;;;;;;2.75;1.30;;;;;;;;;;6269978;22;20340;-77
2023/05/03 11:11:35;;;;;;;2.08;1.20;;;;;;;;;;6270560;22;20007;-77
2023/05/03 11:14:01;;;;;;;3.03;1.30;;;;;;;;;;6270191;22;20324;-76
2023/05/03 11:16:26;;;;;;;4.05;1.27;;;;;;;;;;6270157;22;20420;-76
2023/05/03 11:18:53;;;;;;;3.20;1.38;;;;;;;;;;6270456;22;20150;-76
2023/05/03 11:21:20;;;;;;;2.00;1.20;;;;;;;;;;6269624;22;20008;-77
2023/05/03 11:23:45;;;;;;;1.63;1.10;;;;;;;;;;6271433;22;19999;-76
2023/05/03 11:26:12;;;;;;;2.53;1.50;;;;;;;;;;6271648;22;20000;-77
2023/05/03 11:28:39;;;;;;;5.07;1.38;;;;;;;;;;6272276;22;20003;-77
2023/05/03 11:31:07;;;;;;;2.33;1.23;;;;;;;;;;6244271;22;20027;-77
2023/05/03 11:33:34;;;;;;;2.40;1.25;;;;;;;;;;6272249;22;20011;-77
2023/05/03 11:36:05;;;;;;;1.95;1.23;;;;;;;;;;6271315;22;20071;-77
2023/05/03 11:38:31;;;;;;;4.20;1.50;;;;;;;;;;6271812;22;20008;-78
2023/05/03 11:40:58;;;;;;;2.65;1.35;;;;;;;;;;6271997;22;20010;-76
2023/05/03 11:43:24;;;;;;;2.92;1.50;;;;;;;;;;6271986;22;20021;-76
2023/05/03 11:45:52;;;;;;;3.05;1.35;;;;;;;;;;6271695;22;20102;-77
2023/05/03 11:48:17;;;;;;;2.63;1.20;;;;;;;;;;6272127;22;20477;-77
2023/05/03 11:50:56;;;;;;;2.22;1.30;;;;;;;;;;6271320;22;20000;-78
2023/05/03 11:53:25;;;;;;;2.33;1.30;;;;;;;;;;6271859;22;20007;-78
2023/05/03 11:55:53;;;;;;;2.10;1.25;;;;;;;;;;6271829;22;20000;-78
2023/05/03 11:58:25;;;;;;;1.58;1.20;;;;;;;;;;6272005;22;20053;-77
2023/05/03 12:00:55;;;;;;;2.10;1.50;;;;;;;;;;6271413;22;20137;-77
2023/05/03 12:03:26;;;;;;;2.65;1.20;;;;;;;;;;6271885;22;20003;-77
2023/05/03 12:05:54;;;;;;;;;;;;;;;;;;6271750;22;20099;-77
2023/05/03 12:08:20;;;;;;;4.20;1.40;;;;;;;;;;6271722;22;19994;-78
2023/05/03 12:10:48;;;;;;;2.25;1.25;;;;;;;;;;6271311;22;20559;-77
2023/05/03 12:13:13;;;;;;;2.90;1.17;;;;;;;;;;6270015;22;20000;-77
2023/05/03 12:15:39;;;;;;;4.80;1.30;;;;;;;;;;6271295;22;20011;-77
2023/05/03 12:18:10;;;;;;;2.22;1.20;;;;;;;;;;6271730;22;20007;-77
2023/05/03 12:20:37;;;;;;;2.80;1.40;;;;;;;;;;6271304;22;20004;-77
2023/05/03 12:23:06;;;;;;;3.22;1.30;;;;;;;;;;6243852;22;19999;-77
2023/05/03 12:25:32;;;;;;;4.80;1.30;;;;;;;;;;6271525;22;20019;-77
2023/05/03 12:28:01;;;;;;;1.70;1.40;;;;;;;;;;6271664;22;20038;-77
2023/05/03 12:30:27;;;;;;;4.13;1.50;;;;;;;;;;6271642;22;20013;-77
2023/05/03 12:32:53;;;;;;;2.33;1.20;;;;;;;;;;6271598;22;20087;-78
2023/05/03 12:35:19;;;;;;;2.65;1.20;;;;;;;;;;6270997;22;20026;-77
2023/05/03 12:37:46;;;;;;;2.53;1.50;;;;;;;;;;6270141;22;20016;-77
2023/05/03 12:40:12;;;;;;;2.88;1.20;;;;;;;;;;6271367;22;20007;-77
2023/05/03 12:42:38;;;;;;;3.22;1.20;;;;;;;;;;6271262;22;20004;-77
2023/05/03 12:45:04;;;;;;;2.45;1.40;;;;;;;;;;6271446;22;20046;-77
2023/05/03 12:47:30;;;;;;;1.98;1.30;;;;;;;;;;6271300;22;20022;-77
2023/05/03 12:49:55;;;;;;;2.85;1.27;;;;;;;;;;6271211;22;20010;-77
2023/05/03 12:52:21;;;;;;;3.08;1.20;;;;;;;;;;6270669;22;20309;-77
2023/05/03 12:54:49;;;;;;;2.17;1.20;;;;;;;;;;6271208;22;20026;-78
2023/05/03 12:57:15;;;;;;;3.95;1.10;;;;;;;;;;6271247;22;20563;-77
2023/05/03 12:59:41;;;;;;;2.30;1.20;;;;;;;;;;6271305;22;20004;-77
2023/05/03 13:02:08;;;;;;;2.22;1.20;;;;;;;;;;6271239;22;20454;-77
2023/05/03 13:04:34;;;;;;;2.10;1.23;;;;;;;;;;6271400;22;20000;-79
2023/05/03 13:06:59;;;;;;;3.22;1.20;;;;;;;;;;6270151;22;20010;-77
2023/05/03 13:09:25;;;;;;;4.40;1.23;;;;;;;;;;6271198;22;20027;-78
2023/05/03 13:11:53;;;;;;;1.73;1.20;;;;;;;;;;6270788;22;19995;-79
2023/05/03 13:14:19;;;;;;;2.53;1.40;;;;;;;;;;6244211;22;20585;-77
2023/05/03 13:16:45;;;;;;;2.78;1.40;;;;;;;;;;6271107;22;20083;-78
2023/05/03 13:19:11;;;;;;;4.38;1.20;;;;;;;;;;6271318;22;20000;-77
2023/05/03 13:21:37;;;;;;;6.55;1.50;;;;;;;;;;6243027;22;20034;-77
2023/05/03 13:24:03;;;;;;;4.60;1.40;;;;;;;;;;6271072;22;20332;-78
2023/05/03 13:26:28;;;;;;;2.20;1.17;;;;;;;;;;6270554;22;20404;-77
2023/05/03 13:28:57;;;;;;;2.42;1.25;;;;;;;;;;6270874;22;19999;-77
2023/05/03 13:31:23;;;;;;;3.33;1.30;;;;;;;;;;6270803;22;20576;-76
2023/05/03 13:33:52;;;;;;;1.73;1.20;;;;;;;;;;6271108;22;20438;-76
2023/05/03 13:36:25;;;;;;;2.40;1.10;;;;;;;;;;6270107;22;19999;-78
2023/05/03 13:38:51;;;;;;;5.22;1.40;;;;;;;;;;6270525;22;20262;-77
2023/05/03 13:41:17;;;;;;;3.30;1.30;;;;;;;;;;6270633;22;20014;-78
2023/05/03 13:43:43;;;;;;;2.58;1.40;;;;;;;;;;6270765;22;20000;-78
2023/05/03 13:46:08;;;;;;;2.47;1.10;;;;;;;;;;6270377;22;20006;-76
2023/05/03 13:48:34;;;;;;;3.25;1.30;;;;;;;;;;6270464;22;19996;-77
2023/05/03 13:51:06;;;;;;;2.05;1.20;;;;;;;;;;6269873;22;20328;-78
2023/05/03 13:53:31;;;;;;;2.28;1.20;;;;;;;;;;6270964;22;20057;-76
2023/05/03 13:55:57;;;;;;;2.17;1.20;;;;;;;;;;6270502;22;20008;-77
2023/05/03 13:58:22;;;;;;;3.03;1.30;;;;;;;;;;6243275;22;20011;-77
2023/05/03 14:00:48;;;;;;;1.95;1.38;;;;;;;;;;6270506;22;20003;-77
2023/05/03 14:03:13;;;;;;;2.10;1.40;;;;;;;;;;6270590;22;20003;-78
2023/05/03 14:05:39;;;;;;;2.03;1.20;;;;;;;;;;6270417;22;20628;-78
2023/05/03 14:08:04;;;;;;;2.58;1.55;;;;;;;;;;6269820;22;20007;-77
2023/05/03 14:10:33;;;;;;;2.00;1.20;;;;;;;;;;6271084;22;20372;-77
2023/05/03 14:12:59;;;;;;;1.60;1.20;;;;;;;;;;6270344;22;20004;-77
2023/05/03 14:15:24;;;;;;;2.47;1.40;;;;;;;;;;6270732;22;20061;-77
2023/05/03 14:17:50;;;;;;;3.17;1.40;;;;;;;;;;6270091;22;20062;-76
2023/05/03 14:20:16;;;;;;;1.70;1.30;;;;;;;;;;6270529;22;20072;-78
2023/05/03 14:22:42;;;;;;;3.88;1.40;;;;;;;;;;6269606;22;20333;-78
2023/05/03 14:25:08;;;;;;;2.42;1.50;;;;;;;;;;6270833;22;20011;-77
2023/05/03 14:27:33;;;;;;;2.67;1.40;;;;;;;;;;6270306;22;19999;-77
2023/05/03 14:29:59;;;;;;;1.90;1.25;;;;;;;;;;6271266;22;20010;-77
2023/05/03 14:32:28;;;;;;;1.77;1.10;;;;;;;;;;6270543;22;20038;-77
2023/05/03 14:34:54;;;;;;;2.38;1.27;;;;;;;;;;6270781;22;20007;-76
2023/05/03 14:37:20;;;;;;;3.50;1.40;;;;;;;;;;6270095;22;20355;-77
2023/05/03 14:39:45;;;;;;;4.55;1.50;;;;;;;;;;6270334;22;20451;-77
2023/05/03 14:42:11;;;;;;;1.95;1.23;;;;;;;;;;6270431;22;20003;-77